sensor_id;sensor_type;location;lat;lon;timestamp;P1;durP1;ratioP1;P2;durP2;ratioP2
29938;SDS011;16799;50.844;5.304;2023-03-19T00:01:51;6.97;;;5.70;;
29938;SDS011;16799;50.844;5.304;2023-03-19T00:04:17;4.73;;;4.33;;
29938;SDS011;16799;50.844;5.304;2023-03-19T00:06:43;7.30;;;5.40;;
29938;SDS011;16799;50.844;5.304;2023-03-19T00:09:09;5.67;;;4.20;;
29938;SDS011;16799;50.844;5.304;2023-03-19T00:11:34;7.53;;;4.77;;
29938;SDS011;16799;50.844;5.304;2023-03-19T00:14:00;6.50;;;5.30;;
29938;SDS011;16799;50.844;5.304;2023-03-19T00:16:26;6.33;;;4.90;;
29938;SDS011;16799;50.844;5.304;2023-03-19T00:18:51;4.63;;;4.30;;
29938;SDS011;16799;50.844;5.304;2023-03-19T00:21:17;5.23;;;4.33;;
29938;SDS011;16799;50.844;5.304;2023-03-19T00:23:43;8.60;;;4.70;;
29938;SDS011;16799;50.844;5.304;2023-03-19T00:26:09;4.87;;;4.50;;
29938;SDS011;16799;50.844;5.304;2023-03-19T00:28:35;5.00;;;4.60;;
29938;SDS011;16799;50.844;5.304;2023-03-19T00:31:09;4.50;;;4.10;;
29938;SDS011;16799;50.844;5.304;2023-03-19T00:33:36;3.90;;;3.60;;
29938;SDS011;16799;50.844;5.304;2023-03-19T00:36:02;5.40;;;4.90;;
29938;SDS011;16799;50.844;5.304;2023-03-19T00:38:30;5.53;;;5.13;;
29938;SDS011;16799;50.844;5.304;2023-03-19T00:40:56;8.80;;;4.70;;
29938;SDS011;16799;50.844;5.304;2023-03-19T00:43:22;4.93;;;4.43;;
29938;SDS011;16799;50.844;5.304;2023-03-19T00:45:49;5.63;;;4.50;;
29938;SDS011;16799;50.844;5.304;2023-03-19T00:48:14;9.63;;;6.00;;
29938;SDS011;16799;50.844;5.304;2023-03-19T00:50:41;11.57;;;4.77;;
29938;SDS011;16799;50.844;5.304;2023-03-19T00:53:06;9.37;;;4.57;;
29938;SDS011;16799;50.844;5.304;2023-03-19T00:55:32;4.20;;;3.83;;
29938;SDS011;16799;50.844;5.304;2023-03-19T00:57:57;5.60;;;4.40;;
29938;SDS011;16799;50.844;5.304;2023-03-19T01:00:23;5.40;;;4.50;;
29938;SDS011;16799;50.844;5.304;2023-03-19T01:02:49;6.60;;;5.07;;
29938;SDS011;16799;50.844;5.304;2023-03-19T01:05:15;5.37;;;3.77;;
29938;SDS011;16799;50.844;5.304;2023-03-19T01:07:41;4.50;;;4.10;;
29938;SDS011;16799;50.844;5.304;2023-03-19T01:10:06;8.10;;;5.30;;
29938;SDS011;16799;50.844;5.304;2023-03-19T01:12:33;18.73;;;4.03;;
29938;SDS011;16799;50.844;5.304;2023-03-19T01:14:59;5.43;;;3.43;;
29938;SDS011;16799;50.844;5.304;2023-03-19T01:17:25;5.20;;;4.00;;
29938;SDS011;16799;50.844;5.304;2023-03-19T01:19:51;4.20;;;3.93;;
29938;SDS011;16799;50.844;5.304;2023-03-19T01:22:17;4.13;;;3.83;;
29938;SDS011;16799;50.844;5.304;2023-03-19T01:24:42;5.07;;;4.73;;
29938;SDS011;16799;50.844;5.304;2023-03-19T01:27:08;5.00;;;4.57;;
29938;SDS011;16799;50.844;5.304;2023-03-19T01:29:34;4.07;;;3.77;;
29938;SDS011;16799;50.844;5.304;2023-03-19T01:32:00;8.50;;;4.33;;
29938;SDS011;16799;50.844;5.304;2023-03-19T01:34:26;7.10;;;5.10;;
29938;SDS011;16799;50.844;5.304;2023-03-19T01:36:51;5.77;;;4.77;;
29938;SDS011;16799;50.844;5.304;2023-03-19T01:39:17;4.50;;;4.30;;
29938;SDS011;16799;50.844;5.304;2023-03-19T01:41:43;4.83;;;4.13;;
29938;SDS011;16799;50.844;5.304;2023-03-19T01:44:25;4.90;;;4.50;;
29938;SDS011;16799;50.844;5.304;2023-03-19T01:46:53;5.00;;;4.50;;
29938;SDS011;16799;50.844;5.304;2023-03-19T01:49:19;5.90;;;5.10;;
29938;SDS011;16799;50.844;5.304;2023-03-19T01:51:46;4.73;;;3.67;;
29938;SDS011;16799;50.844;5.304;2023-03-19T01:54:13;4.90;;;4.50;;
29938;SDS011;16799;50.844;5.304;2023-03-19T01:56:43;4.60;;;4.23;;
29938;SDS011;16799;50.844;5.304;2023-03-19T02:01:52;3.43;;;3.23;;
29938;SDS011;16799;50.844;5.304;2023-03-19T02:04:40;9.20;;;4.97;;
29938;SDS011;16799;50.844;5.304;2023-03-19T02:07:08;5.37;;;4.83;;
29938;SDS011;16799;50.844;5.304;2023-03-19T02:09:36;5.33;;;4.77;;
29938;SDS011;16799;50.844;5.304;2023-03-19T02:12:05;4.53;;;4.17;;
29938;SDS011;16799;50.844;5.304;2023-03-19T02:14:31;5.87;;;5.40;;
29938;SDS011;16799;50.844;5.304;2023-03-19T02:16:57;4.53;;;4.23;;
29938;SDS011;16799;50.844;5.304;2023-03-19T02:19:27;5.20;;;4.80;;
29938;SDS011;16799;50.844;5.304;2023-03-19T02:22:00;5.43;;;4.80;;
29938;SDS011;16799;50.844;5.304;2023-03-19T02:27:35;5.03;;;3.37;;
29938;SDS011;16799;50.844;5.304;2023-03-19T02:30:16;5.90;;;5.40;;
29938;SDS011;16799;50.844;5.304;2023-03-19T02:32:42;5.80;;;4.43;;
29938;SDS011;16799;50.844;5.304;2023-03-19T02:35:08;5.73;;;4.37;;
29938;SDS011;16799;50.844;5.304;2023-03-19T02:37:34;5.27;;;4.80;;
29938;SDS011;16799;50.844;5.304;2023-03-19T02:40:01;9.40;;;6.10;;
29938;SDS011;16799;50.844;5.304;2023-03-19T02:42:32;6.73;;;6.13;;
29938;SDS011;16799;50.844;5.304;2023-03-19T02:44:58;7.17;;;6.57;;
29938;SDS011;16799;50.844;5.304;2023-03-19T02:47:24;9.17;;;5.87;;
29938;SDS011;16799;50.844;5.304;2023-03-19T02:49:50;6.63;;;6.17;;
29938;SDS011;16799;50.844;5.304;2023-03-19T02:52:16;5.37;;;5.07;;
29938;SDS011;16799;50.844;5.304;2023-03-19T02:54:43;6.83;;;6.23;;
29938;SDS011;16799;50.844;5.304;2023-03-19T02:57:08;7.97;;;6.90;;
29938;SDS011;16799;50.844;5.304;2023-03-19T02:59:34;7.50;;;5.90;;
29938;SDS011;16799;50.844;5.304;2023-03-19T03:02:00;7.73;;;7.03;;
29938;SDS011;16799;50.844;5.304;2023-03-19T03:04:26;7.73;;;6.93;;
29938;SDS011;16799;50.844;5.304;2023-03-19T03:06:53;8.30;;;7.53;;
29938;SDS011;16799;50.844;5.304;2023-03-19T03:09:18;8.90;;;7.67;;
29938;SDS011;16799;50.844;5.304;2023-03-19T03:11:44;8.73;;;7.63;;
29938;SDS011;16799;50.844;5.304;2023-03-19T03:14:10;18.80;;;7.67;;
29938;SDS011;16799;50.844;5.304;2023-03-19T03:16:36;9.50;;;8.70;;
29938;SDS011;16799;50.844;5.304;2023-03-19T03:19:02;8.93;;;8.20;;
29938;SDS011;16799;50.844;5.304;2023-03-19T03:21:29;10.20;;;9.30;;
29938;SDS011;16799;50.844;5.304;2023-03-19T03:23:54;7.93;;;7.20;;
29938;SDS011;16799;50.844;5.304;2023-03-19T03:26:20;9.93;;;8.13;;
29938;SDS011;16799;50.844;5.304;2023-03-19T03:28:46;9.27;;;8.43;;
29938;SDS011;16799;50.844;5.304;2023-03-19T03:31:12;9.73;;;8.63;;
29938;SDS011;16799;50.844;5.304;2023-03-19T03:33:38;10.87;;;8.83;;
29938;SDS011;16799;50.844;5.304;2023-03-19T03:36:04;13.73;;;8.20;;
29938;SDS011;16799;50.844;5.304;2023-03-19T03:38:31;12.13;;;9.37;;
29938;SDS011;16799;50.844;5.304;2023-03-19T03:40:57;10.60;;;9.03;;
29938;SDS011;16799;50.844;5.304;2023-03-19T03:43:23;9.70;;;8.50;;
29938;SDS011;16799;50.844;5.304;2023-03-19T03:45:49;8.00;;;7.40;;
29938;SDS011;16799;50.844;5.304;2023-03-19T03:48:15;11.73;;;9.40;;
29938;SDS011;16799;50.844;5.304;2023-03-19T03:50:41;10.10;;;9.13;;
29938;SDS011;16799;50.844;5.304;2023-03-19T03:53:07;14.27;;;9.80;;
29938;SDS011;16799;50.844;5.304;2023-03-19T03:55:33;11.53;;;9.20;;
29938;SDS011;16799;50.844;5.304;2023-03-19T03:57:59;10.03;;;9.03;;
29938;SDS011;16799;50.844;5.304;2023-03-19T04:00:25;10.20;;;9.10;;
29938;SDS011;16799;50.844;5.304;2023-03-19T04:02:51;10.73;;;9.57;;
29938;SDS011;16799;50.844;5.304;2023-03-19T04:05:17;10.53;;;9.63;;
29938;SDS011;16799;50.844;5.304;2023-03-19T04:07:43;11.30;;;10.30;;
29938;SDS011;16799;50.844;5.304;2023-03-19T04:10:09;11.07;;;9.93;;
29938;SDS011;16799;50.844;5.304;2023-03-19T04:12:36;11.43;;;9.10;;
29938;SDS011;16799;50.844;5.304;2023-03-19T04:15:04;10.50;;;9.37;;
29938;SDS011;16799;50.844;5.304;2023-03-19T04:17:30;14.77;;;10.77;;
29938;SDS011;16799;50.844;5.304;2023-03-19T04:19:56;13.47;;;11.57;;
29938;SDS011;16799;50.844;5.304;2023-03-19T04:22:22;18.70;;;11.00;;
29938;SDS011;16799;50.844;5.304;2023-03-19T04:24:48;11.57;;;10.40;;
29938;SDS011;16799;50.844;5.304;2023-03-19T04:27:13;12.33;;;10.33;;
29938;SDS011;16799;50.844;5.304;2023-03-19T04:29:39;13.70;;;11.30;;
29938;SDS011;16799;50.844;5.304;2023-03-19T04:32:05;12.63;;;11.37;;
29938;SDS011;16799;50.844;5.304;2023-03-19T04:34:31;16.60;;;11.73;;
29938;SDS011;16799;50.844;5.304;2023-03-19T04:36:56;16.40;;;12.10;;
29938;SDS011;16799;50.844;5.304;2023-03-19T04:39:23;12.87;;;11.57;;
29938;SDS011;16799;50.844;5.304;2023-03-19T04:41:49;14.73;;;11.97;;
29938;SDS011;16799;50.844;5.304;2023-03-19T04:44:14;17.67;;;13.30;;
29938;SDS011;16799;50.844;5.304;2023-03-19T04:46:40;18.30;;;13.30;;
29938;SDS011;16799;50.844;5.304;2023-03-19T04:49:08;15.50;;;11.60;;
29938;SDS011;16799;50.844;5.304;2023-03-19T04:51:34;14.00;;;12.53;;
29938;SDS011;16799;50.844;5.304;2023-03-19T04:53:59;16.40;;;12.93;;
29938;SDS011;16799;50.844;5.304;2023-03-19T04:56:25;17.43;;;13.30;;
29938;SDS011;16799;50.844;5.304;2023-03-19T04:58:51;12.73;;;11.50;;
29938;SDS011;16799;50.844;5.304;2023-03-19T05:01:18;16.60;;;14.00;;
29938;SDS011;16799;50.844;5.304;2023-03-19T05:03:44;16.03;;;13.30;;
29938;SDS011;16799;50.844;5.304;2023-03-19T05:06:10;14.93;;;13.37;;
29938;SDS011;16799;50.844;5.304;2023-03-19T05:08:36;16.13;;;13.10;;
29938;SDS011;16799;50.844;5.304;2023-03-19T05:11:02;17.17;;;13.50;;
29938;SDS011;16799;50.844;5.304;2023-03-19T05:13:27;14.50;;;13.07;;
29938;SDS011;16799;50.844;5.304;2023-03-19T05:15:53;15.13;;;13.00;;
29938;SDS011;16799;50.844;5.304;2023-03-19T05:18:19;24.13;;;12.07;;
29938;SDS011;16799;50.844;5.304;2023-03-19T05:20:46;19.20;;;15.60;;
29938;SDS011;16799;50.844;5.304;2023-03-19T05:23:12;15.20;;;12.73;;
29938;SDS011;16799;50.844;5.304;2023-03-19T05:25:38;23.40;;;16.13;;
29938;SDS011;16799;50.844;5.304;2023-03-19T05:28:05;21.07;;;15.47;;
29938;SDS011;16799;50.844;5.304;2023-03-19T05:30:32;18.17;;;14.30;;
29938;SDS011;16799;50.844;5.304;2023-03-19T05:32:59;17.23;;;15.33;;
29938;SDS011;16799;50.844;5.304;2023-03-19T05:35:26;15.93;;;14.23;;
29938;SDS011;16799;50.844;5.304;2023-03-19T05:37:53;15.67;;;13.73;;
29938;SDS011;16799;50.844;5.304;2023-03-19T05:40:20;20.93;;;15.60;;
29938;SDS011;16799;50.844;5.304;2023-03-19T05:42:47;19.60;;;16.60;;
29938;SDS011;16799;50.844;5.304;2023-03-19T05:45:13;23.27;;;16.60;;
29938;SDS011;16799;50.844;5.304;2023-03-19T05:47:41;16.20;;;14.20;;
29938;SDS011;16799;50.844;5.304;2023-03-19T05:50:07;18.73;;;16.00;;
29938;SDS011;16799;50.844;5.304;2023-03-19T05:52:33;18.57;;;15.07;;
29938;SDS011;16799;50.844;5.304;2023-03-19T05:54:59;17.87;;;15.33;;
29938;SDS011;16799;50.844;5.304;2023-03-19T05:57:25;16.70;;;14.80;;
29938;SDS011;16799;50.844;5.304;2023-03-19T05:59:51;26.37;;;16.60;;
29938;SDS011;16799;50.844;5.304;2023-03-19T06:02:17;19.53;;;14.97;;
29938;SDS011;16799;50.844;5.304;2023-03-19T06:04:43;19.50;;;15.43;;
29938;SDS011;16799;50.844;5.304;2023-03-19T06:07:08;23.33;;;14.30;;
29938;SDS011;16799;50.844;5.304;2023-03-19T06:09:34;15.20;;;13.30;;
29938;SDS011;16799;50.844;5.304;2023-03-19T06:12:00;22.63;;;15.10;;
29938;SDS011;16799;50.844;5.304;2023-03-19T06:14:25;21.60;;;16.03;;
29938;SDS011;16799;50.844;5.304;2023-03-19T06:16:51;18.03;;;13.60;;
29938;SDS011;16799;50.844;5.304;2023-03-19T06:19:17;18.03;;;14.80;;
29938;SDS011;16799;50.844;5.304;2023-03-19T06:21:43;24.50;;;15.40;;
29938;SDS011;16799;50.844;5.304;2023-03-19T06:24:09;21.10;;;15.83;;
29938;SDS011;16799;50.844;5.304;2023-03-19T06:26:35;25.10;;;15.27;;
29938;SDS011;16799;50.844;5.304;2023-03-19T06:29:01;18.70;;;14.47;;
29938;SDS011;16799;50.844;5.304;2023-03-19T06:31:27;18.47;;;15.17;;
29938;SDS011;16799;50.844;5.304;2023-03-19T06:33:53;21.40;;;15.10;;
29938;SDS011;16799;50.844;5.304;2023-03-19T06:36:20;21.40;;;14.73;;
29938;SDS011;16799;50.844;5.304;2023-03-19T06:38:46;20.00;;;14.67;;
29938;SDS011;16799;50.844;5.304;2023-03-19T06:41:11;20.83;;;15.43;;
29938;SDS011;16799;50.844;5.304;2023-03-19T06:43:37;17.53;;;14.90;;
29938;SDS011;16799;50.844;5.304;2023-03-19T06:46:06;23.83;;;15.13;;
29938;SDS011;16799;50.844;5.304;2023-03-19T06:48:33;21.97;;;15.37;;
29938;SDS011;16799;50.844;5.304;2023-03-19T06:50:59;23.13;;;16.03;;
29938;SDS011;16799;50.844;5.304;2023-03-19T06:53:25;24.33;;;14.47;;
29938;SDS011;16799;50.844;5.304;2023-03-19T06:55:52;17.73;;;13.23;;
29938;SDS011;16799;50.844;5.304;2023-03-19T06:58:18;18.50;;;12.83;;
29938;SDS011;16799;50.844;5.304;2023-03-19T07:00:44;19.03;;;14.40;;
29938;SDS011;16799;50.844;5.304;2023-03-19T07:03:09;18.27;;;13.27;;
29938;SDS011;16799;50.844;5.304;2023-03-19T07:05:35;16.60;;;13.43;;
29938;SDS011;16799;50.844;5.304;2023-03-19T07:08:01;16.37;;;12.60;;
29938;SDS011;16799;50.844;5.304;2023-03-19T07:10:27;20.57;;;14.00;;
29938;SDS011;16799;50.844;5.304;2023-03-19T07:12:53;16.30;;;13.70;;
29938;SDS011;16799;50.844;5.304;2023-03-19T07:15:18;16.57;;;14.47;;
29938;SDS011;16799;50.844;5.304;2023-03-19T07:17:45;17.00;;;13.97;;
29938;SDS011;16799;50.844;5.304;2023-03-19T07:20:12;18.47;;;13.77;;
29938;SDS011;16799;50.844;5.304;2023-03-19T07:22:39;20.23;;;16.17;;
29938;SDS011;16799;50.844;5.304;2023-03-19T07:25:05;21.83;;;13.00;;
29938;SDS011;16799;50.844;5.304;2023-03-19T07:27:31;23.43;;;14.30;;
29938;SDS011;16799;50.844;5.304;2023-03-19T07:29:57;17.63;;;15.60;;
29938;SDS011;16799;50.844;5.304;2023-03-19T07:32:23;48.27;;;27.57;;
29938;SDS011;16799;50.844;5.304;2023-03-19T07:34:48;18.50;;;14.37;;
29938;SDS011;16799;50.844;5.304;2023-03-19T07:37:14;18.63;;;15.20;;
29938;SDS011;16799;50.844;5.304;2023-03-19T07:39:40;18.93;;;15.03;;
29938;SDS011;16799;50.844;5.304;2023-03-19T07:42:06;19.63;;;15.00;;
29938;SDS011;16799;50.844;5.304;2023-03-19T07:44:32;16.17;;;14.03;;
29938;SDS011;16799;50.844;5.304;2023-03-19T07:46:57;16.90;;;13.07;;
29938;SDS011;16799;50.844;5.304;2023-03-19T07:49:23;21.30;;;15.33;;
29938;SDS011;16799;50.844;5.304;2023-03-19T07:51:49;15.93;;;13.60;;
29938;SDS011;16799;50.844;5.304;2023-03-19T07:54:15;16.27;;;13.53;;
29938;SDS011;16799;50.844;5.304;2023-03-19T07:56:41;15.33;;;13.83;;
29938;SDS011;16799;50.844;5.304;2023-03-19T07:59:07;18.73;;;14.30;;
29938;SDS011;16799;50.844;5.304;2023-03-19T08:01:33;15.77;;;14.20;;
29938;SDS011;16799;50.844;5.304;2023-03-19T08:03:59;14.33;;;12.23;;
29938;SDS011;16799;50.844;5.304;2023-03-19T08:06:25;15.47;;;12.80;;
29938;SDS011;16799;50.844;5.304;2023-03-19T08:08:50;17.97;;;13.20;;
29938;SDS011;16799;50.844;5.304;2023-03-19T08:11:16;16.23;;;12.50;;
29938;SDS011;16799;50.844;5.304;2023-03-19T08:13:42;13.70;;;12.33;;
29938;SDS011;16799;50.844;5.304;2023-03-19T08:16:08;16.50;;;12.57;;
29938;SDS011;16799;50.844;5.304;2023-03-19T08:18:34;16.23;;;13.47;;
29938;SDS011;16799;50.844;5.304;2023-03-19T08:21:00;15.93;;;13.57;;
29938;SDS011;16799;50.844;5.304;2023-03-19T08:23:26;23.83;;;12.70;;
29938;SDS011;16799;50.844;5.304;2023-03-19T08:25:52;15.37;;;12.67;;
29938;SDS011;16799;50.844;5.304;2023-03-19T08:28:19;15.67;;;13.70;;
29938;SDS011;16799;50.844;5.304;2023-03-19T08:30:45;14.63;;;13.13;;
29938;SDS011;16799;50.844;5.304;2023-03-19T08:33:10;19.60;;;13.40;;
29938;SDS011;16799;50.844;5.304;2023-03-19T08:35:36;13.33;;;12.00;;
29938;SDS011;16799;50.844;5.304;2023-03-19T08:38:02;16.27;;;14.43;;
29938;SDS011;16799;50.844;5.304;2023-03-19T08:40:28;14.87;;;13.47;;
29938;SDS011;16799;50.844;5.304;2023-03-19T08:42:54;15.93;;;14.23;;
29938;SDS011;16799;50.844;5.304;2023-03-19T08:45:20;18.60;;;14.33;;
29938;SDS011;16799;50.844;5.304;2023-03-19T08:47:46;17.03;;;14.27;;
29938;SDS011;16799;50.844;5.304;2023-03-19T08:50:13;14.53;;;13.13;;
29938;SDS011;16799;50.844;5.304;2023-03-19T08:52:39;23.33;;;14.33;;
29938;SDS011;16799;50.844;5.304;2023-03-19T08:55:05;17.87;;;14.43;;
29938;SDS011;16799;50.844;5.304;2023-03-19T08:57:32;17.53;;;14.17;;
29938;SDS011;16799;50.844;5.304;2023-03-19T08:59:58;16.93;;;13.90;;
29938;SDS011;16799;50.844;5.304;2023-03-19T09:02:25;14.27;;;12.87;;
29938;SDS011;16799;50.844;5.304;2023-03-19T09:04:50;19.60;;;14.00;;
29938;SDS011;16799;50.844;5.304;2023-03-19T09:07:16;18.97;;;14.80;;
29938;SDS011;16799;50.844;5.304;2023-03-19T09:09:42;20.03;;;14.20;;
29938;SDS011;16799;50.844;5.304;2023-03-19T09:12:10;19.80;;;15.20;;
29938;SDS011;16799;50.844;5.304;2023-03-19T09:14:37;18.97;;;14.13;;
29938;SDS011;16799;50.844;5.304;2023-03-19T09:17:04;21.60;;;17.00;;
29938;SDS011;16799;50.844;5.304;2023-03-19T09:19:30;19.33;;;14.77;;
29938;SDS011;16799;50.844;5.304;2023-03-19T09:21:57;19.67;;;15.77;;
29938;SDS011;16799;50.844;5.304;2023-03-19T09:24:23;23.50;;;17.37;;
29938;SDS011;16799;50.844;5.304;2023-03-19T09:26:48;20.57;;;16.10;;
29938;SDS011;16799;50.844;5.304;2023-03-19T09:29:15;23.43;;;16.60;;
29938;SDS011;16799;50.844;5.304;2023-03-19T09:31:41;25.03;;;18.70;;
29938;SDS011;16799;50.844;5.304;2023-03-19T09:34:07;24.50;;;17.43;;
29938;SDS011;16799;50.844;5.304;2023-03-19T09:36:33;26.73;;;18.17;;
29938;SDS011;16799;50.844;5.304;2023-03-19T09:38:59;23.70;;;17.30;;
29938;SDS011;16799;50.844;5.304;2023-03-19T09:41:28;28.60;;;19.07;;
29938;SDS011;16799;50.844;5.304;2023-03-19T09:44:13;24.87;;;16.63;;
29938;SDS011;16799;50.844;5.304;2023-03-19T09:46:48;21.50;;;14.33;;
29938;SDS011;16799;50.844;5.304;2023-03-19T09:51:49;16.97;;;11.80;;
29938;SDS011;16799;50.844;5.304;2023-03-19T09:54:31;14.13;;;12.00;;
29938;SDS011;16799;50.844;5.304;2023-03-19T09:57:00;16.13;;;12.70;;
29938;SDS011;16799;50.844;5.304;2023-03-19T09:59:27;20.33;;;14.00;;
29938;SDS011;16799;50.844;5.304;2023-03-19T10:04:35;13.20;;;8.83;;
29938;SDS011;16799;50.844;5.304;2023-03-19T10:15:50;11.60;;;9.97;;
29938;SDS011;16799;50.844;5.304;2023-03-19T10:18:22;8.13;;;7.53;;
29938;SDS011;16799;50.844;5.304;2023-03-19T10:21:02;10.07;;;8.77;;
29938;SDS011;16799;50.844;5.304;2023-03-19T10:26:14;10.33;;;7.90;;
29938;SDS011;16799;50.844;5.304;2023-03-19T10:28:42;9.70;;;8.27;;
29938;SDS011;16799;50.844;5.304;2023-03-19T10:31:17;8.80;;;7.90;;
29938;SDS011;16799;50.844;5.304;2023-03-19T10:36:21;21.47;;;15.10;;
29938;SDS011;16799;50.844;5.304;2023-03-19T10:38:54;15.37;;;13.13;;
29938;SDS011;16799;50.844;5.304;2023-03-19T10:44:24;13.77;;;10.30;;
29938;SDS011;16799;50.844;5.304;2023-03-19T10:46:56;14.40;;;9.73;;
29938;SDS011;16799;50.844;5.304;2023-03-19T10:49:23;11.03;;;8.73;;
29938;SDS011;16799;50.844;5.304;2023-03-19T10:51:49;8.70;;;7.33;;
29938;SDS011;16799;50.844;5.304;2023-03-19T10:56:48;7.97;;;7.33;;
29938;SDS011;16799;50.844;5.304;2023-03-19T10:59:35;14.20;;;8.50;;
29938;SDS011;16799;50.844;5.304;2023-03-19T11:02:13;8.73;;;7.70;;
29938;SDS011;16799;50.844;5.304;2023-03-19T11:04:40;8.00;;;7.30;;
29938;SDS011;16799;50.844;5.304;2023-03-19T11:07:09;9.10;;;4.60;;
29938;SDS011;16799;50.844;5.304;2023-03-19T11:09:38;5.67;;;3.93;;
29938;SDS011;16799;50.844;5.304;2023-03-19T11:14:58;10.33;;;4.27;;
29938;SDS011;16799;50.844;5.304;2023-03-19T11:17:25;4.10;;;3.40;;
29938;SDS011;16799;50.844;5.304;2023-03-19T11:20:04;3.73;;;2.37;;
29938;SDS011;16799;50.844;5.304;2023-03-19T11:22:39;8.10;;;2.90;;
29938;SDS011;16799;50.844;5.304;2023-03-19T11:27:43;6.70;;;3.70;;
29938;SDS011;16799;50.844;5.304;2023-03-19T11:30:16;4.03;;;2.87;;
29938;SDS011;16799;50.844;5.304;2023-03-19T11:35:49;10.33;;;3.33;;
29938;SDS011;16799;50.844;5.304;2023-03-19T11:44:04;8.33;;;4.50;;
29938;SDS011;16799;50.844;5.304;2023-03-19T11:46:47;10.73;;;4.60;;
29938;SDS011;16799;50.844;5.304;2023-03-19T11:52:40;5.53;;;5.13;;
29938;SDS011;16799;50.844;5.304;2023-03-19T11:55:38;7.83;;;6.60;;
29938;SDS011;16799;50.844;5.304;2023-03-19T12:03:17;8.43;;;5.00;;
29938;SDS011;16799;50.844;5.304;2023-03-19T12:05:56;6.30;;;4.90;;
29938;SDS011;16799;50.844;5.304;2023-03-19T12:11:15;6.70;;;5.40;;
29938;SDS011;16799;50.844;5.304;2023-03-19T12:16:39;6.17;;;5.87;;
29938;SDS011;16799;50.844;5.304;2023-03-19T12:19:15;10.90;;;7.00;;
29938;SDS011;16799;50.844;5.304;2023-03-19T12:34:46;4.70;;;4.40;;
29938;SDS011;16799;50.844;5.304;2023-03-19T12:37:40;7.17;;;4.43;;
29938;SDS011;16799;50.844;5.304;2023-03-19T12:40:16;4.47;;;3.33;;
29938;SDS011;16799;50.844;5.304;2023-03-19T12:42:56;4.30;;;3.53;;
29938;SDS011;16799;50.844;5.304;2023-03-19T12:48:21;3.83;;;2.37;;
29938;SDS011;16799;50.844;5.304;2023-03-19T12:50:55;4.00;;;3.40;;
29938;SDS011;16799;50.844;5.304;2023-03-19T12:56:01;11.37;;;4.23;;
29938;SDS011;16799;50.844;5.304;2023-03-19T12:58:38;4.83;;;3.97;;
29938;SDS011;16799;50.844;5.304;2023-03-19T13:01:19;3.30;;;2.97;;
29938;SDS011;16799;50.844;5.304;2023-03-19T13:06:52;4.13;;;3.03;;
29938;SDS011;16799;50.844;5.304;2023-03-19T13:09:49;4.67;;;2.67;;
29938;SDS011;16799;50.844;5.304;2023-03-19T13:12:21;4.00;;;3.40;;
29938;SDS011;16799;50.844;5.304;2023-03-19T13:19:50;6.33;;;3.60;;
29938;SDS011;16799;50.844;5.304;2023-03-19T13:22:27;5.50;;;3.67;;
29938;SDS011;16799;50.844;5.304;2023-03-19T13:24:59;6.90;;;5.00;;
29938;SDS011;16799;50.844;5.304;2023-03-19T13:27:30;6.17;;;3.87;;
29938;SDS011;16799;50.844;5.304;2023-03-19T13:32:38;3.80;;;3.40;;
29938;SDS011;16799;50.844;5.304;2023-03-19T13:35:19;3.77;;;3.37;;
29938;SDS011;16799;50.844;5.304;2023-03-19T13:38:36;7.13;;;4.13;;
29938;SDS011;16799;50.844;5.304;2023-03-19T13:45:53;6.90;;;3.60;;
29938;SDS011;16799;50.844;5.304;2023-03-19T13:56:23;5.40;;;4.63;;
29938;SDS011;16799;50.844;5.304;2023-03-19T13:58:54;9.33;;;5.23;;
29938;SDS011;16799;50.844;5.304;2023-03-19T14:01:47;8.20;;;3.60;;
29938;SDS011;16799;50.844;5.304;2023-03-19T14:04:17;8.20;;;4.67;;
29938;SDS011;16799;50.844;5.304;2023-03-19T14:06:56;6.80;;;3.90;;
29938;SDS011;16799;50.844;5.304;2023-03-19T14:14:44;6.10;;;2.73;;
29938;SDS011;16799;50.844;5.304;2023-03-19T14:20:26;5.93;;;2.90;;
29938;SDS011;16799;50.844;5.304;2023-03-19T14:36:41;9.97;;;4.03;;
29938;SDS011;16799;50.844;5.304;2023-03-19T14:39:15;8.53;;;3.20;;
29938;SDS011;16799;50.844;5.304;2023-03-19T14:41:45;6.40;;;3.90;;
29938;SDS011;16799;50.844;5.304;2023-03-19T14:52:15;11.17;;;4.70;;
29938;SDS011;16799;50.844;5.304;2023-03-19T14:54:55;10.83;;;4.50;;
29938;SDS011;16799;50.844;5.304;2023-03-19T14:57:28;7.07;;;5.13;;
29938;SDS011;16799;50.844;5.304;2023-03-19T14:59:56;9.30;;;4.80;;
29938;SDS011;16799;50.844;5.304;2023-03-19T15:04:48;10.23;;;5.27;;
29938;SDS011;16799;50.844;5.304;2023-03-19T15:07:19;22.00;;;5.50;;
29938;SDS011;16799;50.844;5.304;2023-03-19T15:09:48;22.80;;;5.43;;
29938;SDS011;16799;50.844;5.304;2023-03-19T15:17:46;10.10;;;5.07;;
29938;SDS011;16799;50.844;5.304;2023-03-19T15:20:22;7.73;;;4.73;;
29938;SDS011;16799;50.844;5.304;2023-03-19T15:23:01;10.70;;;5.40;;
29938;SDS011;16799;50.844;5.304;2023-03-19T15:25:29;9.73;;;4.57;;
29938;SDS011;16799;50.844;5.304;2023-03-19T15:28:05;5.27;;;4.30;;
29938;SDS011;16799;50.844;5.304;2023-03-19T15:30:36;17.20;;;5.00;;
29938;SDS011;16799;50.844;5.304;2023-03-19T15:33:02;13.33;;;5.33;;
29938;SDS011;16799;50.844;5.304;2023-03-19T15:35:40;12.13;;;5.37;;
29938;SDS011;16799;50.844;5.304;2023-03-19T15:38:07;6.50;;;4.47;;
29938;SDS011;16799;50.844;5.304;2023-03-19T15:40:34;9.40;;;5.40;;
29938;SDS011;16799;50.844;5.304;2023-03-19T15:43:01;12.97;;;5.60;;
29938;SDS011;16799;50.844;5.304;2023-03-19T15:45:28;13.80;;;5.27;;
29938;SDS011;16799;50.844;5.304;2023-03-19T15:48:02;16.20;;;4.60;;
29938;SDS011;16799;50.844;5.304;2023-03-19T15:50:30;10.53;;;4.83;;
29938;SDS011;16799;50.844;5.304;2023-03-19T15:53:00;6.50;;;5.03;;
29938;SDS011;16799;50.844;5.304;2023-03-19T15:55:29;12.73;;;4.80;;
29938;SDS011;16799;50.844;5.304;2023-03-19T15:58:01;15.30;;;5.37;;
29938;SDS011;16799;50.844;5.304;2023-03-19T16:00:39;13.43;;;5.73;;
29938;SDS011;16799;50.844;5.304;2023-03-19T16:03:05;10.20;;;4.90;;
29938;SDS011;16799;50.844;5.304;2023-03-19T16:05:36;10.67;;;5.03;;
29938;SDS011;16799;50.844;5.304;2023-03-19T16:08:16;8.60;;;5.67;;
29938;SDS011;16799;50.844;5.304;2023-03-19T16:10:47;9.17;;;5.30;;
29938;SDS011;16799;50.844;5.304;2023-03-19T16:13:37;6.30;;;4.27;;
29938;SDS011;16799;50.844;5.304;2023-03-19T16:16:06;9.83;;;6.20;;
29938;SDS011;16799;50.844;5.304;2023-03-19T16:18:51;12.70;;;5.63;;
29938;SDS011;16799;50.844;5.304;2023-03-19T16:21:37;19.73;;;6.50;;
29938;SDS011;16799;50.844;5.304;2023-03-19T16:24:22;17.80;;;6.70;;
29938;SDS011;16799;50.844;5.304;2023-03-19T16:26:55;14.60;;;5.67;;
29938;SDS011;16799;50.844;5.304;2023-03-19T16:31:52;13.43;;;6.53;;
29938;SDS011;16799;50.844;5.304;2023-03-19T16:36:55;13.30;;;8.17;;
29938;SDS011;16799;50.844;5.304;2023-03-19T16:39:34;9.50;;;5.60;;
29938;SDS011;16799;50.844;5.304;2023-03-19T16:44:32;8.90;;;5.93;;
29938;SDS011;16799;50.844;5.304;2023-03-19T16:47:06;7.83;;;7.13;;
29938;SDS011;16799;50.844;5.304;2023-03-19T16:49:35;9.30;;;7.10;;
29938;SDS011;16799;50.844;5.304;2023-03-19T16:52:00;11.30;;;9.77;;
29938;SDS011;16799;50.844;5.304;2023-03-19T16:54:26;13.53;;;10.67;;
29938;SDS011;16799;50.844;5.304;2023-03-19T16:56:52;16.20;;;13.20;;
29938;SDS011;16799;50.844;5.304;2023-03-19T16:59:25;49.23;;;16.73;;
29938;SDS011;16799;50.844;5.304;2023-03-19T17:01:53;19.63;;;15.33;;
29938;SDS011;16799;50.844;5.304;2023-03-19T17:04:18;24.20;;;15.70;;
29938;SDS011;16799;50.844;5.304;2023-03-19T17:06:44;20.23;;;15.60;;
29938;SDS011;16799;50.844;5.304;2023-03-19T17:09:10;24.87;;;16.83;;